Terminal Aerodrome Forecast
Issued by NWS Midland/Odessa, TX

Home | Current Version | Previous Version | Text Only | Print | Product List | Glossary On
Versions: 1 2 3 4 5 6 7 8 9 10 11 12 13 14 15 16
000
FTUS44 KMAF 111100
TAFMAF
TAF
KMAF 111121Z 1112/1212 16010KT P6SM SCT030
     FM111500 16017G24KT P6SM BKN040
     FM120200 16012KT P6SM BKN080=

USA.gov is the U.S. government's official web portal to all federal, state and local government web resources and services.